Map

Track Data

SID SEASON NUMBER BASIN SUBBASIN NAME ISO_TIME NATURE LAT LON WMO_WIND WMO_PRES WMO_AGENCY TRACK_TYPE DIST2LAND LANDFALL IFLAG USA_AGENCY USA_ATCF_ID USA_LAT USA_LON USA_RECORD USA_STATUS USA_WIND USA_PRES USA_SSHS USA_R34_NE USA_R34_SE USA_R34_SW USA_R34_NW USA_R50_NE USA_R50_SE USA_R50_SW USA_R50_NW USA_R64_NE USA_R64_SE USA_R64_SW USA_R64_NW USA_POCI USA_ROCI USA_RMW USA_EYE TOKYO_LAT TOKYO_LON TOKYO_GRADE TOKYO_WIND TOKYO_PRES TOKYO_R50_DIR TOKYO_R50_LONG TOKYO_R50_SHORT TOKYO_R30_DIR TOKYO_R30_LONG TOKYO_R30_SHORT TOKYO_LAND CMA_LAT CMA_LON CMA_CAT CMA_WIND CMA_PRES HKO_LAT HKO_LON HKO_CAT HKO_WIND HKO_PRES NEWDELHI_LAT NEWDELHI_LON NEWDELHI_GRADE NEWDELHI_WIND NEWDELHI_PRES NEWDELHI_CI NEWDELHI_DP NEWDELHI_POCI REUNION_LAT REUNION_LON REUNION_TYPE REUNION_WIND REUNION_PRES REUNION_TNUM REUNION_CI REUNION_RMW REUNION_R34_NE REUNION_R34_SE REUNION_R34_SW REUNION_R34_NW REUNION_R50_NE REUNION_R50_SE REUNION_R50_SW REUNION_R50_NW REUNION_R64_NE REUNION_R64_SE REUNION_R64_SW REUNION_R64_NW BOM_LAT BOM_LON BOM_TYPE BOM_WIND BOM_PRES BOM_TNUM BOM_CI BOM_RMW BOM_R34_NE BOM_R34_SE BOM_R34_SW BOM_R34_NW BOM_R50_NE BOM_R50_SE BOM_R50_SW BOM_R50_NW BOM_R64_NE BOM_R64_SE BOM_R64_SW BOM_R64_NW BOM_ROCI BOM_POCI BOM_EYE BOM_POS_METHOD BOM_PRES_METHOD NADI_LAT NADI_LON NADI_CAT NADI_WIND NADI_PRES WELLINGTON_LAT WELLINGTON_LON WELLINGTON_WIND WELLINGTON_PRES DS824_LAT DS824_LON DS824_STAGE DS824_WIND DS824_PRES TD9636_LAT TD9636_LON TD9636_STAGE TD9636_WIND TD9636_PRES TD9635_LAT TD9635_LON TD9635_WIND TD9635_PRES TD9635_ROCI NEUMANN_LAT NEUMANN_LON NEUMANN_CLASS NEUMANN_WIND NEUMANN_PRES MLC_LAT MLC_LON MLC_CLASS MLC_WIND MLC_PRES USA_GUST BOM_GUST BOM_GUST_PER REUNION_GUST REUNION_GUST_PER USA_SEAHGT USA_SEARAD_NE USA_SEARAD_SE USA_SEARAD_SW USA_SEARAD_NW STORM_SPEED STORM_DIR
1866247N33292 1866 19 NA NA NOT_NAMED 1866-09-04 00:00:00 TS 33.0000 -68.1000 70 hurdat_atl main 745 722 O_____________ hurdat_atl AL031866 33.0000 -68.1000 HU 70 1 10 5
1866247N33292 1866 19 NA NA NOT_NAMED 1866-09-04 03:00:00 TS 33.5000 -68.0551 main 722 711 P_____________ AL031866 33.5000 -68.0551 HU 70 1 10 5
1866247N33292 1866 19 NA NA NOT_NAMED 1866-09-04 06:00:00 TS 34.0000 -68.0000 70 hurdat_atl main 711 701 O_____________ hurdat_atl AL031866 34.0000 -68.0000 HU 70 1 10 6
1866247N33292 1866 19 NA NA NOT_NAMED 1866-09-04 09:00:00 TS 34.5000 -67.9222 main 704 696 P_____________ AL031866 34.5000 -67.9222 HU 70 1 10 9
1866247N33292 1866 19 NA NA NOT_NAMED 1866-09-04 12:00:00 TS 35.0000 -67.8000 70 hurdat_atl main 701 700 O_____________ hurdat_atl AL031866 35.0000 -67.8000 HU 70 1 10 14
1866247N33292 1866 19 NA NA NOT_NAMED 1866-09-04 15:00:00 TS 35.4850 -67.6222 main 712 673 P_____________ AL031866 35.4850 -67.6222 HU 70 1 11 18
1866247N33292 1866 19 NA NA NOT_NAMED 1866-09-04 18:00:00 TS 36.0000 -67.4000 70 hurdat_atl main 673 626 O_____________ hurdat_atl AL031866 36.0000 -67.4000 HU 70 1 12 18
1866247N33292 1866 19 NA NA NOT_NAMED 1866-09-04 21:00:00 TS 36.5773 -67.1793 main 616 566 P_____________ AL031866 36.5773 -67.1793 HU 70 1 13 19
1866247N33292 1866 19 NA NA NOT_NAMED 1866-09-05 00:00:00 TS 37.2000 -66.9000 70 hurdat_atl main 566 521 O_____________ hurdat_atl AL031866 37.2000 -66.9000 HU 70 1 14 22
1866247N33292 1866 19 NA NA NOT_NAMED 1866-09-05 03:00:00 TS 37.8424 -66.5370 main 526 485 P_____________ AL031866 37.8424 -66.5370 HU 70 1 14 26
1866247N33292 1866 19 NA NA NOT_NAMED 1866-09-05 06:00:00 TS 38.5000 -66.1000 70 hurdat_atl main 485 464 O_____________ hurdat_atl AL031866 38.5000 -66.1000 HU 70 1 15 29
1866247N33292 1866 19 NA NA NOT_NAMED 1866-09-05 09:00:00 TS 39.1575 -65.6146 main 463 411 P_____________ AL031866 39.1575 -65.6146 HU 70 1 15 31
1866247N33292 1866 19 NA NA NOT_NAMED 1866-09-05 12:00:00 TS 39.8000 -65.1000 70 hurdat_atl main 411 348 O_____________ hurdat_atl AL031866 39.8000 -65.1000 HU 70 1 14 31
1866247N33292 1866 19 NA NA NOT_NAMED 1866-09-05 15:00:00 TS 40.3912 -64.6640 main 348 294 P_____________ AL031866 40.3912 -64.6640 HU 70 1 14 32
1866247N33292 1866 19 NA NA NOT_NAMED 1866-09-05 18:00:00 TS 41.0000 -64.1000 70 hurdat_atl main 294 258 O_____________ hurdat_atl AL031866 41.0000 -64.1000 HU 70 1 17 40
1866247N33292 1866 19 NA NA NOT_NAMED 1866-09-05 21:00:00 TS 41.7158 -63.2121 main 263 245 P_____________ AL031866 41.7158 -63.2121 HU 70 1 20 45
1866247N33292 1866 19 NA NA NOT_NAMED 1866-09-06 00:00:00 TS 42.4000 -62.2000 70 hurdat_atl main 249 228 O_____________ hurdat_atl AL031866 42.4000 -62.2000 HU 70 1 19 50
1866247N33292 1866 19 NA NA NOT_NAMED 1866-09-06 03:00:00 TS 42.9216 -61.2892 main 231 207 P_____________ AL031866 42.9216 -61.2892 HU 70 1 17 53
1866247N33292 1866 19 NA NA NOT_NAMED 1866-09-06 06:00:00 TS 43.4000 -60.4000 70 hurdat_atl main 207 181 O_____________ hurdat_atl AL031866 43.4000 -60.4000 HU 70 1 16 51
1866247N33292 1866 19 NA NA NOT_NAMED 1866-09-06 09:00:00 TS 43.9487 -59.5209 main 191 180 P_____________ AL031866 43.9487 -59.5209 HU 70 1 17 50
1866247N33292 1866 19 NA NA NOT_NAMED 1866-09-06 12:00:00 TS 44.5000 -58.6000 70 hurdat_atl main 185 182 O_____________ hurdat_atl AL031866 44.5000 -58.6000 HU 70 1 17 52
1866247N33292 1866 19 NA NA NOT_NAMED 1866-09-06 15:00:00 TS 45.0217 -57.5864 main 213 160 P_____________ AL031866 45.0217 -57.5864 HU 70 1 18 56
1866247N33292 1866 19 NA NA NOT_NAMED 1866-09-06 18:00:00 TS 45.5000 -56.5000 70 hurdat_atl main 156 100 O_____________ hurdat_atl AL031866 45.5000 -56.5000 HU 70 1 18 59
1866247N33292 1866 19 NA NA NOT_NAMED 1866-09-06 21:00:00 TS 45.9200 -55.4146 main 102 56 P_____________ AL031866 45.9200 -55.4146 HU 65 1 18 63
1866247N33292 1866 19 NA NA NOT_NAMED 1866-09-07 00:00:00 TS 46.3000 -54.2000 60 hurdat_atl main 55 0 O_____________ hurdat_atl AL031866 46.3000 -54.2000 TS 60 0 20 68
1866247N33292 1866 19 NA NA NOT_NAMED 1866-09-07 03:00:00 TS 46.6603 -52.7698 main 18 18 P_____________ AL031866 46.6603 -52.7698 TS 60 0 22 71
1866247N33292 1866 19 NA NA NOT_NAMED 1866-09-07 06:00:00 TS 47.0000 -51.2000 60 hurdat_atl main 118 O_____________ hurdat_atl AL031866 47.0000 -51.2000 TS 60 0 22 72

About IBTrACS Database

This database is a web-friendly format of International Best Track Archive for Climate Stewardship (IBTrACS), a global best track data archive curated by NOAA dating back to 1842.

Updated: 2021-12-03